Kezdőlap
METAR-TAF:

METAR-TAF

Repülőterek :

Ilulissat, Grönland

földrajzi szélesség: 69-14N, földrajzi hosszúság: 051-04W, magasság: 29 m

Jelenlegi meteorológiai megfigyelések

A jelentés 49 perccel ezelõtt készült, 09:50 UTC
Délkeleti szél 1 kt
Hőmérséklet -15°C
Páratartalom 71%
Légköri nyomás 1011 hPa
Látótávolság 10 km, vagy több
Kevés felhő 5000 lábon
Szakadozott felhőzet 18000 lábon

METAR: BGJN 050950Z 13001KT 9999 FEW050 BKN180 M15/M19 Q1011

Idő: 07:39 (10:39 UTC)

Előrejelzés

A jelentés 2 órával és 28 perccel ezelõtt készült, 08:11 UTC
Az előrejelzés 05-én 09 óra UTC és 05-én 18 óra UTC között érvényes
Különbözõ irányokból fújó szél 8 kt
Látótávolság 10 km, vagy több
Kevés felhő 20000 lábon

TAF: BGJN 050811Z 0509/0518 VRB08KT 9999 FEW200

Meteorológiai megfigyelések és előrejelzések több, mint 4000 repülőtéren (METAR és TAF jelentéseket).

A térképen piros és sárga pontok jelzik az elérhető meteorológiai állomásokat.

Mozgassa az egeret a pont fölött, hogy megjelenjen az állomás neve.

Azután kattintson az időjárási megfigyelések és előrejelzések megtekintéséhez.

A térkép megváltoztatása: kattintson a fekete keresztel jelölt zöld gombra ráközelítéshez, a vonallal jelölt zöld gombra távolításhoz, vagy a zöld nyilakra a szomszédos térképek eléréséhez.


METAR-TAF: